createdAt,value
2019-02-27T00:01:16.733Z,96777.80
2019-02-27T00:03:42.789Z,96781.44
2019-02-27T00:06:10.077Z,96787.45
2019-02-27T00:08:37.381Z,96786.76
2019-02-27T00:11:04.641Z,96785.96
2019-02-27T00:13:32.487Z,96788.44
2019-02-27T00:15:59.765Z,96788.36
2019-02-27T00:18:27.002Z,96780.23
2019-02-27T00:20:54.311Z,96777.13
2019-02-27T00:23:23.906Z,96775.50
2019-02-27T00:25:50.742Z,96774.30
2019-02-27T00:28:18.041Z,96771.95
2019-02-27T00:30:45.311Z,96777.87
2019-02-27T00:33:12.640Z,96780.76
2019-02-27T00:35:39.961Z,96772.73
2019-02-27T00:38:07.220Z,96771.33
2019-02-27T00:40:38.431Z,96765.47
2019-02-27T00:43:03.760Z,96762.91
2019-02-27T00:45:31.029Z,96765.97
2019-02-27T00:47:58.713Z,96760.55
2019-02-27T00:50:25.958Z,96759.56
2019-02-27T00:52:53.252Z,96763.67
2019-02-27T00:55:20.541Z,96762.36
2019-02-27T00:57:47.830Z,96751.23
2019-02-27T01:00:15.656Z,96754.80
2019-02-27T01:02:42.902Z,96757.80
2019-02-27T01:05:10.399Z,96753.90
2019-02-27T01:07:37.741Z,96752.80
2019-02-27T01:10:07.220Z,96750.39
2019-02-27T01:12:34.485Z,96746.77
2019-02-27T01:15:01.736Z,96735.58
2019-02-27T01:17:29.025Z,96742.67
2019-02-27T01:19:56.325Z,96735.27
2019-02-27T01:22:23.625Z,96735.45
2019-02-27T01:24:50.903Z,96721.41
2019-02-27T01:27:18.221Z,96715.67
2019-02-27T01:29:45.493Z,96719.55
2019-02-27T01:32:12.776Z,96725.44
2019-02-27T01:34:44.238Z,96731.09
2019-02-27T01:37:09.313Z,96739.97
2019-02-27T01:39:36.553Z,96738.67
2019-02-27T01:42:03.862Z,96729.94
2019-02-27T01:44:31.256Z,96725.86
2019-02-27T01:47:01.820Z,96723.44
2019-02-27T01:49:27.742Z,96714.46
2019-02-27T01:51:55.046Z,96707.75
2019-02-27T01:54:22.503Z,96709.58
2019-02-27T01:56:49.892Z,96707.81
2019-02-27T01:59:17.812Z,96698.52
2019-02-27T02:01:45.304Z,96695.94
2019-02-27T02:04:12.755Z,96696.94
2019-02-27T02:06:40.189Z,96694.44
2019-02-27T02:09:09.917Z,96688.03
2019-02-27T02:11:37.375Z,96686.28
2019-02-27T02:14:24.101Z,96683.28
2019-02-27T02:17:31.578Z,96673.44
2019-02-27T02:20:34.485Z,96680.98
2019-02-27T02:23:44.981Z,96673.02
2019-02-27T02:26:39.254Z,96677.60
2019-02-27T02:29:28.472Z,96673.98
2019-02-27T02:32:52.060Z,96676.88
2019-02-27T02:35:39.533Z,96676.66
2019-02-27T02:39:02.373Z,96678.45
2019-02-27T02:41:58.419Z,96678.44
2019-02-27T02:45:06.074Z,96675.69
2019-02-27T02:48:14.968Z,96682.14
2019-02-27T02:51:00.211Z,96674.53
2019-02-27T02:53:53.052Z,96678.09
2019-02-27T02:56:45.536Z,96672.16
2019-02-27T02:59:50.721Z,96668.67
2019-02-27T03:02:57.575Z,96658.18
2019-02-27T03:05:59.758Z,96654.02
2019-02-27T03:08:56.334Z,96660.10
2019-02-27T03:12:01.965Z,96661.13
2019-02-27T03:15:06.094Z,96670.20
2019-02-27T03:18:04.675Z,96665.59
2019-02-27T03:21:06.281Z,96664.05
2019-02-27T03:24:28.262Z,96672.17
2019-02-27T03:27:47.481Z,96664.96
2019-02-27T03:30:52.640Z,96658.75
2019-02-27T04:11:41.375Z,96646.52
2019-02-27T04:14:31.860Z,96647.94
2019-02-27T04:17:06.912Z,96642.87
2019-02-27T04:19:39.244Z,96641.67
2019-02-27T04:25:38.977Z,96645.96
2019-02-27T04:28:11.681Z,96642.87
2019-02-27T04:30:43.864Z,96648.28
2019-02-27T04:37:26.457Z,96645.11
2019-02-27T04:40:01.258Z,96651.65
2019-02-27T04:45:13.152Z,96645.63
2019-02-27T04:48:24.096Z,96647.10
2019-02-27T04:50:55.233Z,96653.64
2019-02-27T04:53:46.500Z,96647.33
2019-02-27T04:56:17.920Z,96655.17
2019-02-27T04:59:02.613Z,96650.92
2019-02-27T05:01:36.472Z,96648.67
2019-02-27T05:04:19.474Z,96655.27
2019-02-27T05:06:50.732Z,96657.35
2019-02-27T05:09:41.511Z,96659.95
2019-02-27T05:12:12.971Z,96669.17
2019-02-27T05:15:14.714Z,96665.80
2019-02-27T05:17:47.233Z,96672.11
2019-02-27T05:20:18.031Z,96665.42
2019-02-27T05:22:50.171Z,96659.05
2019-02-27T05:25:46.154Z,96666.11
2019-02-27T05:28:17.296Z,96672.88
2019-02-27T05:31:12.312Z,96668.95
2019-02-27T05:33:44.493Z,96666.33
2019-02-27T05:36:32.368Z,96665.47
2019-02-27T05:39:05.077Z,96667.61
2019-02-27T05:41:47.076Z,96659.77
2019-02-27T05:44:21.216Z,96658.28
2019-02-27T05:47:18.733Z,96659.25
2019-02-27T05:49:49.837Z,96656.14
2019-02-27T05:52:35.733Z,96654.87
2019-02-27T05:55:07.117Z,96658.36
2019-02-27T05:58:00.213Z,96657.16
2019-02-27T06:00:31.780Z,96659.09
2019-02-27T06:03:12.578Z,96652.98
2019-02-27T06:05:49.395Z,96665.38
2019-02-27T06:08:16.175Z,96664.99
2019-02-27T06:10:47.351Z,96670.83
2019-02-27T06:13:44.965Z,96670.63
2019-02-27T06:16:15.277Z,96670.42
2019-02-27T06:18:46.294Z,96678.33
2019-02-27T06:21:18.117Z,96671.67
2019-02-27T06:24:12.499Z,96668.17
2019-02-27T06:26:44.409Z,96662.45
2019-02-27T06:29:50.529Z,96661.50
2019-02-27T06:35:12.510Z,96670.63
2019-02-27T06:37:40.041Z,96671.32
2019-02-27T06:40:08.755Z,96674.20
2019-02-27T06:42:36.394Z,96678.41
2019-02-27T06:45:04.559Z,96678.00
2019-02-27T06:47:33.032Z,96679.98
2019-02-27T06:50:01.468Z,96676.15
2019-02-27T06:52:28.912Z,96669.87
2019-02-27T06:54:56.415Z,96678.40
2019-02-27T06:57:23.910Z,96675.91
2019-02-27T06:59:51.358Z,96672.75
2019-02-27T07:02:19.110Z,96672.11
2019-02-27T07:04:48.202Z,96674.05
2019-02-27T07:07:15.707Z,96670.97
2019-02-27T07:09:45.819Z,96669.03
2019-02-27T07:12:12.595Z,96669.73
2019-02-27T07:14:40.078Z,96665.28
2019-02-27T07:17:07.513Z,96661.76
2019-02-27T07:19:35.076Z,96656.97
2019-02-27T07:22:03.069Z,96661.59
2019-02-27T07:24:33.050Z,96652.58
2019-02-27T07:26:59.878Z,96657.57
2019-02-27T07:29:28.054Z,96659.16
2019-02-27T07:31:57.226Z,96665.23
2019-02-27T07:34:25.504Z,96657.09
2019-02-27T07:36:52.995Z,96664.06
2019-02-27T07:39:20.471Z,96662.55
2019-02-27T07:41:47.964Z,96662.24
2019-02-27T07:44:15.446Z,96658.85
2019-02-27T07:46:42.934Z,96658.97
2019-02-27T07:49:10.410Z,96657.36
2019-02-27T07:51:37.847Z,96661.16
2019-02-27T07:54:05.315Z,96656.82
2019-02-27T07:56:32.789Z,96654.23
2019-02-27T07:59:00.225Z,96657.86
2019-02-27T08:01:27.668Z,96659.51
2019-02-27T08:03:55.140Z,96661.45
2019-02-27T08:06:23.621Z,96653.06
2019-02-27T08:08:51.335Z,96653.25
2019-02-27T08:11:18.848Z,96648.94
2019-02-27T08:13:46.295Z,96645.20
2019-02-27T08:16:13.781Z,96645.88
2019-02-27T08:18:41.226Z,96648.59
2019-02-27T08:21:08.759Z,96644.80
2019-02-27T08:23:36.214Z,96641.86
2019-02-27T08:26:05.136Z,96627.95
2019-02-27T08:28:33.167Z,96629.19
2019-02-27T08:31:00.699Z,96627.64
2019-02-27T08:33:28.210Z,96624.60
2019-02-27T08:35:55.711Z,96616.56
2019-02-27T08:38:23.696Z,96611.63
2019-02-27T08:40:51.436Z,96615.84
2019-02-27T08:43:18.960Z,96614.34
2019-02-27T08:45:46.403Z,96617.25
2019-02-27T08:48:17.149Z,96612.25
2019-02-27T08:50:43.211Z,96608.63
2019-02-27T08:53:10.667Z,96605.60
2019-02-27T08:55:39.262Z,96601.02
2019-02-27T08:58:07.451Z,96598.88
2019-02-27T09:00:35.016Z,96601.49
2019-02-27T09:03:03.598Z,96596.11
2019-02-27T09:05:31.590Z,96589.01
2019-02-27T09:07:59.050Z,96577.84
2019-02-27T09:10:30.380Z,96577.58
2019-02-27T09:13:04.865Z,96583.31
2019-02-27T09:15:25.255Z,96579.91
2019-02-27T09:17:52.729Z,96564.96
2019-02-27T09:20:20.879Z,96564.86
2019-02-27T09:22:48.385Z,96558.58
2019-02-27T09:25:16.252Z,96555.52
2019-02-27T09:27:43.690Z,96544.81
2019-02-27T09:30:12.651Z,96550.17
2019-02-27T09:32:43.277Z,96541.51
2019-02-27T09:35:12.501Z,96533.72
2019-02-27T09:37:39.987Z,96527.91
2019-02-27T09:40:09.559Z,96525.20
2019-02-27T09:42:37.012Z,96522.02
2019-02-27T09:45:04.613Z,96517.20
2019-02-27T09:47:32.047Z,96520.66
2019-02-27T09:49:59.488Z,96521.27
2019-02-27T09:52:27.794Z,96522.67
2019-02-27T09:54:57.329Z,96511.03
2019-02-27T09:57:24.787Z,96515.23
2019-02-27T09:59:53.672Z,96512.72
2019-02-27T10:02:21.592Z,96505.02
2019-02-27T10:04:49.057Z,96509.72
2019-02-27T10:07:17.091Z,96501.40
2019-02-27T10:09:44.780Z,96506.88
2019-02-27T10:12:12.211Z,96499.04
2019-02-27T10:14:39.703Z,96490.94
2019-02-27T10:17:09.143Z,96492.79
2019-02-27T10:19:36.498Z,96499.07
2019-02-27T10:22:04.048Z,96489.84
2019-02-27T10:24:32.307Z,96488.61
2019-02-27T10:26:59.831Z,96480.70
2019-02-27T10:29:27.333Z,96470.54
2019-02-27T10:31:55.417Z,96472.48
2019-02-27T10:34:23.072Z,96468.98
2019-02-27T10:36:51.019Z,96469.01
2019-02-27T10:39:18.748Z,96467.69
2019-02-27T10:41:49.720Z,96461.75
2019-02-27T10:44:15.704Z,96452.66
2019-02-27T10:46:43.269Z,96456.81
2019-02-27T10:49:10.796Z,96447.25
2019-02-27T10:51:38.400Z,96435.70
2019-02-27T10:54:06.136Z,96437.86
2019-02-27T10:56:33.641Z,96429.20
2019-02-27T10:59:01.378Z,96433.55
2019-02-27T11:01:29.113Z,96437.52
2019-02-27T11:03:56.642Z,96434.14
2019-02-27T11:06:33.746Z,96431.51
2019-02-27T11:08:55.916Z,96432.28
2019-02-27T11:11:23.837Z,96427.72
2019-02-27T11:13:51.771Z,96425.88
2019-02-27T11:16:21.433Z,96415.91
2019-02-27T11:18:49.570Z,96412.31
2019-02-27T11:21:17.042Z,96406.52
2019-02-27T11:23:44.472Z,96403.19
2019-02-27T11:26:11.887Z,96396.91
2019-02-27T11:28:39.325Z,96388.20
2019-02-27T11:31:08.432Z,96388.83
2019-02-27T11:33:37.290Z,96387.48
2019-02-27T11:36:05.661Z,96379.45
2019-02-27T11:38:34.003Z,96372.48
2019-02-27T11:41:01.529Z,96366.61
2019-02-27T11:43:28.976Z,96359.75
2019-02-27T11:45:58.016Z,96353.59
2019-02-27T11:48:25.829Z,96342.66
2019-02-27T11:50:53.383Z,96342.19
2019-02-27T11:53:20.846Z,96331.77
2019-02-27T11:55:48.333Z,96325.41
2019-02-27T11:58:15.879Z,96316.14
2019-02-27T12:00:43.374Z,96304.06
2019-02-27T12:03:11.317Z,96300.38
2019-02-27T12:05:39.681Z,96296.57
2019-02-27T12:08:07.200Z,96283.72
2019-02-27T12:10:34.674Z,96280.48
2019-02-27T12:13:02.108Z,96276.44
2019-02-27T12:15:29.629Z,96270.51
2019-02-27T12:17:59.725Z,96258.05
2019-02-27T12:20:26.541Z,96257.72
2019-02-27T12:22:54.010Z,96244.73
2019-02-27T12:25:21.479Z,96241.44
2019-02-27T12:27:52.590Z,96239.59
2019-02-27T12:30:20.350Z,96234.70
2019-02-27T12:32:47.858Z,96230.27
2019-02-27T12:35:17.852Z,96221.78
2019-02-27T12:37:45.362Z,96220.37
2019-02-27T12:40:14.850Z,96216.64
2019-02-27T12:42:43.153Z,96209.24
2019-02-27T12:45:13.949Z,96209.42
2019-02-27T12:47:41.424Z,96203.48
2019-02-27T12:50:10.727Z,96194.61
2019-02-27T12:52:38.211Z,96192.83
2019-02-27T12:55:06.010Z,96191.00
2019-02-27T12:57:33.511Z,96184.36
2019-02-27T13:00:00.971Z,96182.84
2019-02-27T13:02:35.438Z,96170.10
2019-02-27T13:04:58.050Z,96165.25
2019-02-27T13:07:25.508Z,96158.50
2019-02-27T13:09:52.980Z,96157.24
2019-02-27T13:12:20.429Z,96155.62
2019-02-27T13:14:47.937Z,96153.72
2019-02-27T13:17:15.571Z,96146.08
2019-02-27T13:19:43.009Z,96143.93
2019-02-27T13:22:10.588Z,96145.28
2019-02-27T13:24:38.071Z,96131.95
2019-02-27T13:27:09.015Z,96137.81
2019-02-27T13:29:34.940Z,96128.30
2019-02-27T13:32:02.403Z,96126.73
2019-02-27T13:34:29.911Z,96127.48
2019-02-27T13:36:57.385Z,96123.80
2019-02-27T13:39:25.685Z,96124.80
2019-02-27T13:41:53.752Z,96123.08
2019-02-27T13:44:21.232Z,96123.92
2019-02-27T13:46:48.731Z,96117.88
2019-02-27T13:49:16.243Z,96117.83
2019-02-27T13:51:43.752Z,96122.51
2019-02-27T13:54:11.235Z,96118.00
2019-02-27T13:56:38.732Z,96113.93
2019-02-27T13:59:07.434Z,96115.58
2019-02-27T14:01:35.865Z,96107.48
2019-02-27T14:04:03.350Z,96107.64
2019-02-27T14:06:30.829Z,96107.42
2019-02-27T14:08:58.272Z,96103.08
2019-02-27T14:11:25.865Z,96101.80
2019-02-27T14:13:53.329Z,96097.81
2019-02-27T14:16:20.785Z,96097.58
2019-02-27T14:18:50.043Z,96095.34
2019-02-27T14:21:18.188Z,96091.28
2019-02-27T14:23:46.820Z,96088.52
2019-02-27T14:26:14.650Z,96086.77
2019-02-27T14:28:42.129Z,96087.59
2019-02-27T14:31:10.058Z,96078.77
2019-02-27T14:33:37.636Z,96076.80
2019-02-27T14:36:08.200Z,96075.65
2019-02-27T14:38:34.532Z,96082.07
2019-02-27T14:41:02.015Z,96075.30
2019-02-27T14:43:29.482Z,96069.94
2019-02-27T14:45:56.951Z,96074.06
2019-02-27T14:48:26.248Z,96066.45
2019-02-27T14:50:53.710Z,96068.84
2019-02-27T14:53:21.169Z,96065.21
2019-02-27T14:55:48.654Z,96067.28
2019-02-27T14:58:16.142Z,96064.92
2019-02-27T15:00:43.824Z,96063.42
2019-02-27T15:03:11.465Z,96064.74
2019-02-27T15:05:42.881Z,96055.44
2019-02-27T15:08:08.548Z,96053.02
2019-02-27T15:10:40.243Z,96048.12
2019-02-27T15:13:06.056Z,96047.38
2019-02-27T15:15:34.165Z,96047.28
2019-02-27T15:18:01.993Z,96040.45
2019-02-27T15:20:30.118Z,96045.78
2019-02-27T15:22:57.568Z,96032.55
2019-02-27T15:25:25.051Z,96027.45
2019-02-27T15:27:52.541Z,96028.14
2019-02-27T15:30:21.916Z,96033.99
2019-02-27T15:32:49.441Z,96030.39
2019-02-27T15:35:21.040Z,96022.16
2019-02-27T15:37:48.215Z,96023.07
2019-02-27T15:40:17.710Z,96021.00
2019-02-27T15:42:45.573Z,96016.03
2019-02-27T15:45:15.344Z,96026.45
2019-02-27T15:47:42.881Z,96027.53
2019-02-27T15:50:12.228Z,96019.78
2019-02-27T15:52:40.626Z,96012.53
2019-02-27T15:55:08.642Z,96016.39
2019-02-27T15:57:36.179Z,96015.39
2019-02-27T16:00:06.395Z,96013.52
2019-02-27T16:02:36.839Z,96018.62
2019-02-27T16:05:04.580Z,96017.86
2019-02-27T16:07:32.216Z,96014.90
2019-02-27T16:09:59.716Z,96015.34
2019-02-27T16:12:27.230Z,96012.57
2019-02-27T16:14:54.962Z,96017.16
2019-02-27T16:17:22.740Z,96013.88
2019-02-27T16:19:50.520Z,96018.23
2019-02-27T16:22:18.236Z,96019.83
2019-02-27T16:24:53.446Z,96018.08
2019-02-27T16:27:21.017Z,96013.93
2019-02-27T16:29:50.977Z,96016.63
2019-02-27T16:32:20.429Z,96024.05
2019-02-27T16:34:47.974Z,96031.66
2019-02-27T16:37:23.842Z,96034.64
2019-02-27T16:39:51.578Z,96028.72
2019-02-27T16:42:19.164Z,96022.80
2019-02-27T16:44:46.946Z,96022.96
2019-02-27T16:47:15.518Z,96019.75
2019-02-27T16:49:44.143Z,96028.66
2019-02-27T16:52:12.038Z,96031.15
2019-02-27T16:54:39.806Z,96027.05
2019-02-27T16:57:07.730Z,96037.36
2019-02-27T16:59:35.499Z,96036.72
2019-02-27T17:02:03.916Z,96034.94
2019-02-27T17:04:34.075Z,96031.28
2019-02-27T17:07:01.784Z,96040.41
2019-02-27T17:09:29.749Z,96038.55
2019-02-27T17:11:57.630Z,96038.82
2019-02-27T17:14:25.674Z,96042.52
2019-02-27T17:16:53.694Z,96043.56
2019-02-27T17:19:21.768Z,96041.74
2019-02-27T17:21:49.930Z,96048.41
2019-02-27T17:24:21.837Z,96045.25
2019-02-27T17:26:47.873Z,96052.83
2019-02-27T17:29:15.674Z,96051.61
2019-02-27T17:31:49.434Z,96051.73
2019-02-27T17:34:16.030Z,96050.38
2019-02-27T17:36:49.402Z,96059.10
2019-02-27T17:39:17.374Z,96065.44
2019-02-27T17:41:45.432Z,96065.31
2019-02-27T17:44:13.418Z,96067.16
2019-02-27T17:46:42.730Z,96074.27
2019-02-27T17:49:10.473Z,96070.45
2019-02-27T17:51:39.567Z,96076.96
2019-02-27T17:54:07.718Z,96076.14
2019-02-27T17:56:35.766Z,96077.37
2019-02-27T17:59:05.218Z,96093.34
2019-02-27T18:01:33.592Z,96084.29
2019-02-27T18:04:01.677Z,96089.72
2019-02-27T18:06:31.222Z,96083.39
2019-02-27T18:08:59.812Z,96081.95
2019-02-27T18:11:30.687Z,96081.95
2019-02-27T18:14:10.085Z,96087.08
2019-02-27T18:16:50.007Z,96087.83
2019-02-27T18:19:18.065Z,96083.04
2019-02-27T18:21:46.118Z,96083.77
2019-02-27T18:24:15.773Z,96084.90
2019-02-27T18:26:43.833Z,96079.54
2019-02-27T18:29:11.875Z,96083.64
2019-02-27T18:31:40.125Z,96083.53
2019-02-27T18:34:08.201Z,96089.06
2019-02-27T18:36:42.824Z,96090.05
2019-02-27T18:39:06.790Z,96083.82
2019-02-27T18:41:34.962Z,96093.80
2019-02-27T18:44:04.780Z,96090.52
2019-02-27T18:46:33.019Z,96095.80
2019-02-27T18:49:02.514Z,96091.41
2019-02-27T18:51:33.186Z,96095.98
2019-02-27T18:54:02.280Z,96097.45
2019-02-27T18:56:30.405Z,96106.55
2019-02-27T18:58:58.476Z,96103.65
2019-02-27T19:01:26.785Z,96102.56
2019-02-27T19:04:00.349Z,96103.91
2019-02-27T19:06:24.846Z,96098.10
2019-02-27T19:08:53.272Z,96102.73
2019-02-27T19:11:22.407Z,96105.21
2019-02-27T19:13:50.598Z,96101.92
2019-02-27T19:16:20.723Z,96106.53
2019-02-27T19:18:48.745Z,96113.73
2019-02-27T19:21:16.811Z,96113.61
2019-02-27T19:23:44.926Z,96107.69
2019-02-27T19:26:13.217Z,96106.31
2019-02-27T19:28:41.356Z,96103.40
2019-02-27T19:31:09.558Z,96104.77
2019-02-27T19:33:37.606Z,96102.39
2019-02-27T19:36:08.144Z,96106.73
2019-02-27T19:38:36.266Z,96105.42
2019-02-27T19:41:04.794Z,96106.53
2019-02-27T19:43:33.370Z,96108.67
2019-02-27T19:46:01.385Z,96097.79
2019-02-27T19:48:29.669Z,96098.26
2019-02-27T19:50:59.570Z,96103.05
2019-02-27T19:53:27.635Z,96101.57
2019-02-27T19:56:00.703Z,96107.99
2019-02-27T19:58:26.424Z,96098.39
2019-02-27T20:00:54.976Z,96098.14
2019-02-27T20:03:24.069Z,96093.23
2019-02-27T20:05:53.281Z,96098.26
2019-02-27T20:08:22.414Z,96100.20
2019-02-27T20:10:50.779Z,96097.61
2019-02-27T20:13:24.651Z,96100.98
2019-02-27T20:15:54.796Z,96101.58
2019-02-27T20:18:24.006Z,96095.06
2019-02-27T20:20:52.343Z,96094.95
2019-02-27T20:23:20.418Z,96096.63
2019-02-27T20:25:48.652Z,96100.08
2019-02-27T20:28:18.747Z,96099.27
2019-02-27T20:30:47.078Z,96102.21
2019-02-27T20:33:15.447Z,96096.29
2019-02-27T20:35:43.563Z,96097.03
2019-02-27T20:38:16.153Z,96101.44
2019-02-27T20:40:43.035Z,96099.41
2019-02-27T20:43:11.075Z,96092.48
2019-02-27T20:45:40.071Z,96090.95
2019-02-27T20:48:08.447Z,96087.73
2019-02-27T20:50:39.015Z,96093.61
2019-02-27T20:53:07.870Z,96089.02
2019-02-27T20:55:35.914Z,96088.95
2019-02-27T20:58:04.634Z,96087.41
2019-02-27T21:00:35.907Z,96089.09
2019-02-27T21:03:03.257Z,96083.02
2019-02-27T21:05:32.430Z,96086.52
2019-02-27T21:08:02.078Z,96085.99
2019-02-27T21:10:30.507Z,96083.68
2019-02-27T21:12:58.594Z,96081.16
2019-02-27T21:15:29.337Z,96084.66
2019-02-27T21:17:58.632Z,96084.53
2019-02-27T21:20:26.964Z,96081.45
2019-02-27T21:22:55.052Z,96079.11
2019-02-27T21:25:23.074Z,96085.77
2019-02-27T21:27:51.294Z,96083.52
2019-02-27T21:30:20.016Z,96084.52
2019-02-27T21:32:48.178Z,96081.30
2019-02-27T21:35:17.910Z,96079.56
2019-02-27T21:37:45.905Z,96081.22
2019-02-27T21:40:14.568Z,96082.45
2019-02-27T21:42:42.683Z,96078.94
2019-02-27T21:45:13.308Z,96073.75
2019-02-27T21:47:41.339Z,96068.88
2019-02-27T21:50:10.767Z,96070.38
2019-02-27T21:52:38.834Z,96070.48
2019-02-27T21:55:12.673Z,96076.94
2019-02-27T21:57:36.686Z,96070.77
2019-02-27T22:00:05.534Z,96066.41
2019-02-27T22:02:33.014Z,96064.20
2019-02-27T22:05:00.666Z,96066.34
2019-02-27T22:07:32.933Z,96066.47
2019-02-27T22:09:57.571Z,96060.61
2019-02-27T22:12:25.185Z,96060.97
2019-02-27T22:14:52.670Z,96067.67
2019-02-27T22:17:20.164Z,96061.29
2019-02-27T22:19:50.419Z,96065.11
2019-02-27T22:22:16.991Z,96059.75
2019-02-27T22:24:44.610Z,96059.09
2019-02-27T22:27:12.750Z,96061.78
2019-02-27T22:29:40.951Z,96063.33
2019-02-27T22:32:08.440Z,96063.72
2019-02-27T22:34:36.010Z,96066.72
2019-02-27T22:37:03.659Z,96065.78
2019-02-27T22:39:32.637Z,96059.94
2019-02-27T22:42:00.235Z,96063.23
2019-02-27T22:44:29.240Z,96065.56
2019-02-27T22:46:57.267Z,96061.91
2019-02-27T22:49:24.720Z,96060.14
2019-02-27T22:51:52.275Z,96054.63
2019-02-27T22:54:19.818Z,96050.81
2019-02-27T22:56:51.387Z,96052.89
2019-02-27T22:59:16.987Z,96058.00
2019-02-27T23:01:50.747Z,96059.36
2019-02-27T23:04:16.942Z,96057.57
2019-02-27T23:06:47.283Z,96054.30
2019-02-27T23:09:14.430Z,96056.83
2019-02-27T23:11:42.601Z,96058.15
2019-02-27T23:14:10.310Z,96051.98
2019-02-27T23:16:37.867Z,96046.36
2019-02-27T23:19:05.324Z,96047.83
2019-02-27T23:21:32.779Z,96037.63
2019-02-27T23:24:00.350Z,96043.37
2019-02-27T23:26:27.935Z,96038.42
2019-02-27T23:28:55.430Z,96036.52
2019-02-27T23:31:23.672Z,96033.52
2019-02-27T23:33:51.284Z,96033.12
2019-02-27T23:36:22.002Z,96035.96
2019-02-27T23:38:48.250Z,96035.94
2019-02-27T23:41:15.686Z,96027.89
2019-02-27T23:43:43.309Z,96030.05
2019-02-27T23:46:10.770Z,96029.59
2019-02-27T23:48:38.350Z,96026.25
2019-02-27T23:51:05.846Z,96025.74
2019-02-27T23:53:33.331Z,96015.11
2019-02-27T23:56:00.765Z,96012.05
2019-02-27T23:58:29.503Z,96016.87
